sensor_id;sensor_type;location;lat;lon;timestamp;P1;durP1;ratioP1;P2;durP2;ratioP2
2618;SDS011;1319;52.346;13.096;2023-02-15T00:00:51;42.87;;;16.73;;
2618;SDS011;1319;52.346;13.096;2023-02-15T00:03:19;48.03;;;16.20;;
2618;SDS011;1319;52.346;13.096;2023-02-15T00:05:44;41.97;;;15.67;;
2618;SDS011;1319;52.346;13.096;2023-02-15T00:08:10;44.33;;;14.83;;
2618;SDS011;1319;52.346;13.096;2023-02-15T00:10:35;39.27;;;15.40;;
2618;SDS011;1319;52.346;13.096;2023-02-15T00:13:00;40.37;;;15.23;;
2618;SDS011;1319;52.346;13.096;2023-02-15T00:15:25;42.03;;;15.30;;
2618;SDS011;1319;52.346;13.096;2023-02-15T00:17:50;44.70;;;15.93;;
2618;SDS011;1319;52.346;13.096;2023-02-15T00:20:16;51.30;;;16.70;;
2618;SDS011;1319;52.346;13.096;2023-02-15T00:22:41;46.23;;;16.13;;
2618;SDS011;1319;52.346;13.096;2023-02-15T00:25:06;42.50;;;15.10;;
2618;SDS011;1319;52.346;13.096;2023-02-15T00:27:32;42.63;;;15.90;;
2618;SDS011;1319;52.346;13.096;2023-02-15T00:29:57;46.10;;;16.63;;
2618;SDS011;1319;52.346;13.096;2023-02-15T00:32:23;42.53;;;15.60;;
2618;SDS011;1319;52.346;13.096;2023-02-15T00:34:48;45.30;;;16.47;;
2618;SDS011;1319;52.346;13.096;2023-02-15T00:37:13;50.80;;;16.17;;
2618;SDS011;1319;52.346;13.096;2023-02-15T00:39:38;42.23;;;16.60;;
2618;SDS011;1319;52.346;13.096;2023-02-15T00:42:03;48.97;;;16.23;;
2618;SDS011;1319;52.346;13.096;2023-02-15T00:44:29;47.67;;;16.50;;
2618;SDS011;1319;52.346;13.096;2023-02-15T00:46:55;51.27;;;17.83;;
2618;SDS011;1319;52.346;13.096;2023-02-15T00:49:20;47.90;;;16.33;;
2618;SDS011;1319;52.346;13.096;2023-02-15T00:51:45;48.17;;;16.33;;
2618;SDS011;1319;52.346;13.096;2023-02-15T00:54:11;46.87;;;16.37;;
2618;SDS011;1319;52.346;13.096;2023-02-15T00:56:36;52.27;;;17.03;;
2618;SDS011;1319;52.346;13.096;2023-02-15T00:59:01;50.50;;;16.67;;
2618;SDS011;1319;52.346;13.096;2023-02-15T01:01:26;46.20;;;17.03;;
2618;SDS011;1319;52.346;13.096;2023-02-15T01:03:52;58.27;;;18.40;;
2618;SDS011;1319;52.346;13.096;2023-02-15T01:06:17;76.17;;;23.33;;
2618;SDS011;1319;52.346;13.096;2023-02-15T01:08:43;201.13;;;24.80;;
2618;SDS011;1319;52.346;13.096;2023-02-15T01:11:09;87.10;;;23.67;;
2618;SDS011;1319;52.346;13.096;2023-02-15T01:13:35;85.93;;;23.13;;
2618;SDS011;1319;52.346;13.096;2023-02-15T01:16:00;75.23;;;21.63;;
2618;SDS011;1319;52.346;13.096;2023-02-15T01:18:26;76.57;;;23.70;;
2618;SDS011;1319;52.346;13.096;2023-02-15T01:20:51;70.73;;;22.53;;
2618;SDS011;1319;52.346;13.096;2023-02-15T01:23:17;70.90;;;21.70;;
2618;SDS011;1319;52.346;13.096;2023-02-15T01:25:42;79.50;;;22.77;;
2618;SDS011;1319;52.346;13.096;2023-02-15T01:28:07;99.13;;;23.60;;
2618;SDS011;1319;52.346;13.096;2023-02-15T01:30:32;86.63;;;23.10;;
2618;SDS011;1319;52.346;13.096;2023-02-15T01:32:58;90.77;;;23.20;;
2618;SDS011;1319;52.346;13.096;2023-02-15T01:35:25;90.00;;;23.97;;
2618;SDS011;1319;52.346;13.096;2023-02-15T01:37:50;84.13;;;22.60;;
2618;SDS011;1319;52.346;13.096;2023-02-15T01:40:16;79.03;;;22.73;;
2618;SDS011;1319;52.346;13.096;2023-02-15T01:42:42;81.77;;;23.37;;
2618;SDS011;1319;52.346;13.096;2023-02-15T01:47:44;89.00;;;23.47;;
2618;SDS011;1319;52.346;13.096;2023-02-15T01:50:14;82.93;;;23.07;;
2618;SDS011;1319;52.346;13.096;2023-02-15T01:52:41;87.03;;;23.40;;
2618;SDS011;1319;52.346;13.096;2023-02-15T01:55:09;91.83;;;22.73;;
2618;SDS011;1319;52.346;13.096;2023-02-15T01:57:35;78.53;;;22.73;;
2618;SDS011;1319;52.346;13.096;2023-02-15T02:00:01;80.50;;;23.30;;
2618;SDS011;1319;52.346;13.096;2023-02-15T02:02:27;88.20;;;23.27;;
2618;SDS011;1319;52.346;13.096;2023-02-15T02:04:54;80.67;;;23.07;;
2618;SDS011;1319;52.346;13.096;2023-02-15T02:07:22;85.70;;;22.77;;
2618;SDS011;1319;52.346;13.096;2023-02-15T02:09:48;78.53;;;22.13;;
2618;SDS011;1319;52.346;13.096;2023-02-15T02:12:14;72.53;;;21.40;;
2618;SDS011;1319;52.346;13.096;2023-02-15T02:14:40;90.67;;;23.83;;
2618;SDS011;1319;52.346;13.096;2023-02-15T02:35:11;194.40;;;29.90;;
2618;SDS011;1319;52.346;13.096;2023-02-15T02:37:49;217.53;;;31.43;;
2618;SDS011;1319;52.346;13.096;2023-02-15T02:43:15;217.37;;;31.57;;
2618;SDS011;1319;52.346;13.096;2023-02-15T02:45:50;182.00;;;29.33;;
2618;SDS011;1319;52.346;13.096;2023-02-15T02:48:19;342.57;;;34.87;;
2618;SDS011;1319;52.346;13.096;2023-02-15T02:50:46;197.13;;;30.47;;
2618;SDS011;1319;52.346;13.096;2023-02-15T02:53:11;278.10;;;32.80;;
2618;SDS011;1319;52.346;13.096;2023-02-15T02:58:13;434.97;;;41.37;;
2618;SDS011;1319;52.346;13.096;2023-02-15T03:01:01;164.77;;;31.13;;
2618;SDS011;1319;52.346;13.096;2023-02-15T03:03:30;207.53;;;30.87;;
2618;SDS011;1319;52.346;13.096;2023-02-15T03:05:58;275.90;;;34.57;;
2618;SDS011;1319;52.346;13.096;2023-02-15T03:08:25;305.07;;;34.33;;
2618;SDS011;1319;52.346;13.096;2023-02-15T03:10:53;296.63;;;35.90;;
2618;SDS011;1319;52.346;13.096;2023-02-15T03:13:19;568.07;;;43.60;;
2618;SDS011;1319;52.346;13.096;2023-02-15T03:15:44;227.37;;;32.33;;
2618;SDS011;1319;52.346;13.096;2023-02-15T03:18:33;246.50;;;34.17;;
2618;SDS011;1319;52.346;13.096;2023-02-15T03:21:01;234.33;;;34.80;;
2618;SDS011;1319;52.346;13.096;2023-02-15T03:23:26;198.10;;;33.23;;
2618;SDS011;1319;52.346;13.096;2023-02-15T03:25:54;212.03;;;33.80;;
2618;SDS011;1319;52.346;13.096;2023-02-15T03:28:23;208.77;;;34.03;;
2618;SDS011;1319;52.346;13.096;2023-02-15T03:30:51;186.23;;;31.03;;
2618;SDS011;1319;52.346;13.096;2023-02-15T03:33:18;208.87;;;32.50;;
2618;SDS011;1319;52.346;13.096;2023-02-15T03:35:49;224.07;;;30.57;;
2618;SDS011;1319;52.346;13.096;2023-02-15T03:38:20;215.23;;;30.17;;
2618;SDS011;1319;52.346;13.096;2023-02-15T03:40:45;167.80;;;27.43;;
2618;SDS011;1319;52.346;13.096;2023-02-15T03:43:33;212.20;;;31.53;;
2618;SDS011;1319;52.346;13.096;2023-02-15T03:46:01;160.47;;;26.90;;
2618;SDS011;1319;52.346;13.096;2023-02-15T03:48:32;130.43;;;25.23;;
2618;SDS011;1319;52.346;13.096;2023-02-15T03:51:01;175.80;;;25.23;;
2618;SDS011;1319;52.346;13.096;2023-02-15T03:53:47;96.73;;;21.03;;
2618;SDS011;1319;52.346;13.096;2023-02-15T03:56:13;106.03;;;22.20;;
2618;SDS011;1319;52.346;13.096;2023-02-15T03:58:38;115.97;;;23.00;;
2618;SDS011;1319;52.346;13.096;2023-02-15T04:01:26;124.07;;;19.37;;
2618;SDS011;1319;52.346;13.096;2023-02-15T04:04:12;150.10;;;21.70;;
2618;SDS011;1319;52.346;13.096;2023-02-15T04:06:39;284.77;;;25.27;;
2618;SDS011;1319;52.346;13.096;2023-02-15T04:09:04;140.63;;;20.43;;
2618;SDS011;1319;52.346;13.096;2023-02-15T04:11:48;292.50;;;24.07;;
2618;SDS011;1319;52.346;13.096;2023-02-15T04:14:13;150.73;;;21.57;;
2618;SDS011;1319;52.346;13.096;2023-02-15T04:16:58;155.10;;;22.40;;
2618;SDS011;1319;52.346;13.096;2023-02-15T04:19:23;131.90;;;20.53;;
2618;SDS011;1319;52.346;13.096;2023-02-15T04:22:07;202.83;;;21.20;;
2618;SDS011;1319;52.346;13.096;2023-02-15T04:24:51;152.60;;;21.13;;
2618;SDS011;1319;52.346;13.096;2023-02-15T04:27:35;191.67;;;21.97;;
2618;SDS011;1319;52.346;13.096;2023-02-15T04:30:00;221.07;;;25.30;;
2618;SDS011;1319;52.346;13.096;2023-02-15T04:32:26;214.77;;;25.10;;
2618;SDS011;1319;52.346;13.096;2023-02-15T04:34:52;156.27;;;23.10;;
2618;SDS011;1319;52.346;13.096;2023-02-15T04:37:17;149.77;;;23.20;;
2618;SDS011;1319;52.346;13.096;2023-02-15T04:39:42;148.83;;;24.93;;
2618;SDS011;1319;52.346;13.096;2023-02-15T04:42:07;121.30;;;23.13;;
2618;SDS011;1319;52.346;13.096;2023-02-15T04:44:32;133.77;;;26.00;;
2618;SDS011;1319;52.346;13.096;2023-02-15T04:46:57;191.60;;;28.93;;
2618;SDS011;1319;52.346;13.096;2023-02-15T04:49:23;214.00;;;29.73;;
2618;SDS011;1319;52.346;13.096;2023-02-15T04:51:48;330.90;;;35.57;;
2618;SDS011;1319;52.346;13.096;2023-02-15T04:54:13;463.00;;;38.37;;
2618;SDS011;1319;52.346;13.096;2023-02-15T04:56:39;352.07;;;34.03;;
2618;SDS011;1319;52.346;13.096;2023-02-15T04:59:04;402.20;;;36.37;;
2618;SDS011;1319;52.346;13.096;2023-02-15T05:01:29;388.50;;;35.07;;
2618;SDS011;1319;52.346;13.096;2023-02-15T05:03:55;394.77;;;36.83;;
2618;SDS011;1319;52.346;13.096;2023-02-15T05:06:20;370.93;;;36.73;;
2618;SDS011;1319;52.346;13.096;2023-02-15T05:08:46;325.17;;;29.93;;
2618;SDS011;1319;52.346;13.096;2023-02-15T05:11:11;416.83;;;37.40;;
2618;SDS011;1319;52.346;13.096;2023-02-15T05:13:36;316.90;;;31.90;;
2618;SDS011;1319;52.346;13.096;2023-02-15T05:16:01;334.53;;;32.80;;
2618;SDS011;1319;52.346;13.096;2023-02-15T05:18:27;332.27;;;36.00;;
2618;SDS011;1319;52.346;13.096;2023-02-15T05:20:52;226.30;;;28.27;;
2618;SDS011;1319;52.346;13.096;2023-02-15T05:23:17;302.33;;;34.03;;
2618;SDS011;1319;52.346;13.096;2023-02-15T05:25:46;322.27;;;35.60;;
2618;SDS011;1319;52.346;13.096;2023-02-15T05:28:31;199.30;;;29.30;;
2618;SDS011;1319;52.346;13.096;2023-02-15T05:31:30;239.90;;;30.13;;
2618;SDS011;1319;52.346;13.096;2023-02-15T05:33:47;207.97;;;30.23;;
2618;SDS011;1319;52.346;13.096;2023-02-15T05:36:12;269.00;;;32.63;;
2618;SDS011;1319;52.346;13.096;2023-02-15T05:38:38;232.67;;;29.90;;
2618;SDS011;1319;52.346;13.096;2023-02-15T05:41:03;225.27;;;28.13;;
2618;SDS011;1319;52.346;13.096;2023-02-15T05:43:29;173.40;;;26.07;;
2618;SDS011;1319;52.346;13.096;2023-02-15T05:45:55;169.70;;;28.47;;
2618;SDS011;1319;52.346;13.096;2023-02-15T05:48:21;174.13;;;27.23;;
2618;SDS011;1319;52.346;13.096;2023-02-15T05:50:55;147.83;;;25.63;;
2618;SDS011;1319;52.346;13.096;2023-02-15T05:53:21;203.87;;;28.17;;
2618;SDS011;1319;52.346;13.096;2023-02-15T05:55:46;192.70;;;26.13;;
2618;SDS011;1319;52.346;13.096;2023-02-15T05:58:11;165.30;;;26.93;;
2618;SDS011;1319;52.346;13.096;2023-02-15T06:00:36;156.90;;;25.77;;
2618;SDS011;1319;52.346;13.096;2023-02-15T06:03:02;142.50;;;26.50;;
2618;SDS011;1319;52.346;13.096;2023-02-15T06:05:27;212.03;;;25.93;;
2618;SDS011;1319;52.346;13.096;2023-02-15T06:07:52;177.53;;;25.83;;
2618;SDS011;1319;52.346;13.096;2023-02-15T06:10:17;245.57;;;26.97;;
2618;SDS011;1319;52.346;13.096;2023-02-15T06:12:43;125.73;;;24.10;;
2618;SDS011;1319;52.346;13.096;2023-02-15T06:15:08;130.47;;;24.57;;
2618;SDS011;1319;52.346;13.096;2023-02-15T06:17:34;157.53;;;24.33;;
2618;SDS011;1319;52.346;13.096;2023-02-15T06:19:59;150.53;;;23.23;;
2618;SDS011;1319;52.346;13.096;2023-02-15T06:22:24;150.50;;;23.60;;
2618;SDS011;1319;52.346;13.096;2023-02-15T06:24:49;133.90;;;21.37;;
2618;SDS011;1319;52.346;13.096;2023-02-15T06:27:14;174.20;;;23.00;;
2618;SDS011;1319;52.346;13.096;2023-02-15T06:29:40;204.60;;;24.93;;
2618;SDS011;1319;52.346;13.096;2023-02-15T06:32:05;144.27;;;21.50;;
2618;SDS011;1319;52.346;13.096;2023-02-15T06:34:30;187.07;;;22.70;;
2618;SDS011;1319;52.346;13.096;2023-02-15T06:36:56;167.97;;;24.47;;
2618;SDS011;1319;52.346;13.096;2023-02-15T06:39:21;144.27;;;22.80;;
2618;SDS011;1319;52.346;13.096;2023-02-15T06:41:46;147.27;;;23.40;;
2618;SDS011;1319;52.346;13.096;2023-02-15T06:44:11;122.37;;;22.13;;
2618;SDS011;1319;52.346;13.096;2023-02-15T06:46:36;139.03;;;22.97;;
2618;SDS011;1319;52.346;13.096;2023-02-15T06:49:02;189.17;;;23.70;;
2618;SDS011;1319;52.346;13.096;2023-02-15T06:51:27;119.63;;;23.37;;
2618;SDS011;1319;52.346;13.096;2023-02-15T06:53:52;147.57;;;21.70;;
2618;SDS011;1319;52.346;13.096;2023-02-15T06:56:17;127.87;;;21.97;;
2618;SDS011;1319;52.346;13.096;2023-02-15T06:58:42;127.53;;;23.20;;
2618;SDS011;1319;52.346;13.096;2023-02-15T07:01:08;119.33;;;21.97;;
2618;SDS011;1319;52.346;13.096;2023-02-15T07:03:34;131.57;;;23.20;;
2618;SDS011;1319;52.346;13.096;2023-02-15T07:06:00;99.93;;;21.47;;
2618;SDS011;1319;52.346;13.096;2023-02-15T07:08:26;139.50;;;22.43;;
2618;SDS011;1319;52.346;13.096;2023-02-15T07:10:52;108.97;;;24.60;;
2618;SDS011;1319;52.346;13.096;2023-02-15T07:13:17;136.77;;;22.03;;
2618;SDS011;1319;52.346;13.096;2023-02-15T07:15:43;136.73;;;23.30;;
2618;SDS011;1319;52.346;13.096;2023-02-15T07:18:08;95.97;;;22.00;;
2618;SDS011;1319;52.346;13.096;2023-02-15T07:20:35;129.40;;;23.53;;
2618;SDS011;1319;52.346;13.096;2023-02-15T07:23:01;134.17;;;24.97;;
2618;SDS011;1319;52.346;13.096;2023-02-15T07:25:27;111.10;;;22.87;;
2618;SDS011;1319;52.346;13.096;2023-02-15T07:27:58;104.30;;;23.00;;
2618;SDS011;1319;52.346;13.096;2023-02-15T07:30:24;109.73;;;23.67;;
2618;SDS011;1319;52.346;13.096;2023-02-15T07:32:49;131.60;;;22.90;;
2618;SDS011;1319;52.346;13.096;2023-02-15T07:35:33;89.63;;;23.57;;
2618;SDS011;1319;52.346;13.096;2023-02-15T07:37:58;85.33;;;22.30;;
2618;SDS011;1319;52.346;13.096;2023-02-15T07:40:24;95.60;;;23.70;;
2618;SDS011;1319;52.346;13.096;2023-02-15T07:42:49;115.07;;;24.37;;
2618;SDS011;1319;52.346;13.096;2023-02-15T07:45:16;108.30;;;24.53;;
2618;SDS011;1319;52.346;13.096;2023-02-15T07:47:41;83.33;;;23.30;;
2618;SDS011;1319;52.346;13.096;2023-02-15T07:50:07;107.33;;;25.70;;
2618;SDS011;1319;52.346;13.096;2023-02-15T07:52:32;101.60;;;25.23;;
2618;SDS011;1319;52.346;13.096;2023-02-15T07:54:57;81.07;;;25.17;;
2618;SDS011;1319;52.346;13.096;2023-02-15T07:57:22;95.33;;;25.53;;
2618;SDS011;1319;52.346;13.096;2023-02-15T07:59:47;83.13;;;24.60;;
2618;SDS011;1319;52.346;13.096;2023-02-15T08:02:13;90.90;;;24.17;;
2618;SDS011;1319;52.346;13.096;2023-02-15T08:04:38;71.53;;;23.20;;
2618;SDS011;1319;52.346;13.096;2023-02-15T08:07:04;84.73;;;24.87;;
2618;SDS011;1319;52.346;13.096;2023-02-15T08:09:29;79.43;;;25.67;;
2618;SDS011;1319;52.346;13.096;2023-02-15T08:11:54;80.07;;;25.00;;
2618;SDS011;1319;52.346;13.096;2023-02-15T08:14:20;87.80;;;25.63;;
2618;SDS011;1319;52.346;13.096;2023-02-15T08:16:50;77.47;;;26.23;;
2618;SDS011;1319;52.346;13.096;2023-02-15T08:21:42;79.80;;;26.27;;
2618;SDS011;1319;52.346;13.096;2023-02-15T08:24:08;74.90;;;25.70;;
2618;SDS011;1319;52.346;13.096;2023-02-15T08:26:34;83.07;;;25.70;;
2618;SDS011;1319;52.346;13.096;2023-02-15T08:29:00;72.60;;;25.67;;
2618;SDS011;1319;52.346;13.096;2023-02-15T08:31:25;75.40;;;25.87;;
2618;SDS011;1319;52.346;13.096;2023-02-15T08:33:52;80.03;;;26.73;;
2618;SDS011;1319;52.346;13.096;2023-02-15T08:36:18;77.90;;;26.63;;
2618;SDS011;1319;52.346;13.096;2023-02-15T08:38:44;77.93;;;27.47;;
2618;SDS011;1319;52.346;13.096;2023-02-15T08:41:10;77.90;;;25.53;;
2618;SDS011;1319;52.346;13.096;2023-02-15T08:43:35;71.03;;;25.90;;
2618;SDS011;1319;52.346;13.096;2023-02-15T08:46:01;87.07;;;26.47;;
2618;SDS011;1319;52.346;13.096;2023-02-15T08:48:26;80.87;;;26.33;;
2618;SDS011;1319;52.346;13.096;2023-02-15T08:50:51;77.37;;;26.87;;
2618;SDS011;1319;52.346;13.096;2023-02-15T08:53:16;74.07;;;26.37;;
2618;SDS011;1319;52.346;13.096;2023-02-15T08:55:46;74.97;;;26.10;;
2618;SDS011;1319;52.346;13.096;2023-02-15T08:58:11;71.63;;;26.43;;
2618;SDS011;1319;52.346;13.096;2023-02-15T09:00:37;71.77;;;26.23;;
2618;SDS011;1319;52.346;13.096;2023-02-15T09:03:02;74.53;;;26.00;;
2618;SDS011;1319;52.346;13.096;2023-02-15T09:05:28;71.10;;;25.53;;
2618;SDS011;1319;52.346;13.096;2023-02-15T09:07:53;64.63;;;26.30;;
2618;SDS011;1319;52.346;13.096;2023-02-15T09:10:18;71.40;;;26.67;;
2618;SDS011;1319;52.346;13.096;2023-02-15T09:12:44;72.63;;;25.40;;
2618;SDS011;1319;52.346;13.096;2023-02-15T09:15:09;67.57;;;25.07;;
2618;SDS011;1319;52.346;13.096;2023-02-15T09:17:35;74.23;;;25.67;;
2618;SDS011;1319;52.346;13.096;2023-02-15T09:20:01;60.57;;;24.83;;
2618;SDS011;1319;52.346;13.096;2023-02-15T09:22:26;62.63;;;25.57;;
2618;SDS011;1319;52.346;13.096;2023-02-15T09:24:51;66.20;;;26.70;;
2618;SDS011;1319;52.346;13.096;2023-02-15T09:27:16;63.60;;;25.97;;
2618;SDS011;1319;52.346;13.096;2023-02-15T09:29:41;58.60;;;24.17;;
2618;SDS011;1319;52.346;13.096;2023-02-15T09:32:07;62.03;;;25.57;;
2618;SDS011;1319;52.346;13.096;2023-02-15T09:34:32;59.70;;;24.87;;
2618;SDS011;1319;52.346;13.096;2023-02-15T09:36:57;60.27;;;24.93;;
2618;SDS011;1319;52.346;13.096;2023-02-15T09:39:23;61.27;;;25.80;;
2618;SDS011;1319;52.346;13.096;2023-02-15T09:44:42;64.50;;;25.97;;
2618;SDS011;1319;52.346;13.096;2023-02-15T09:57:10;58.27;;;24.97;;
2618;SDS011;1319;52.346;13.096;2023-02-15T10:02:20;60.87;;;25.47;;
2618;SDS011;1319;52.346;13.096;2023-02-15T10:04:52;57.47;;;25.07;;
2618;SDS011;1319;52.346;13.096;2023-02-15T10:10:21;62.57;;;26.60;;
2618;SDS011;1319;52.346;13.096;2023-02-15T10:20:28;67.43;;;28.80;;
2618;SDS011;1319;52.346;13.096;2023-02-15T10:27:58;64.23;;;28.07;;
2618;SDS011;1319;52.346;13.096;2023-02-15T10:30:27;62.23;;;28.37;;
2618;SDS011;1319;52.346;13.096;2023-02-15T10:35:25;65.03;;;27.57;;
2618;SDS011;1319;52.346;13.096;2023-02-15T10:38:10;64.03;;;27.60;;
2618;SDS011;1319;52.346;13.096;2023-02-15T10:45:53;64.30;;;26.73;;
2618;SDS011;1319;52.346;13.096;2023-02-15T10:48:23;62.27;;;27.17;;
2618;SDS011;1319;52.346;13.096;2023-02-15T10:50:51;57.33;;;26.83;;
2618;SDS011;1319;52.346;13.096;2023-02-15T11:03:52;59.97;;;27.83;;
2618;SDS011;1319;52.346;13.096;2023-02-15T11:06:21;49.80;;;25.60;;
2618;SDS011;1319;52.346;13.096;2023-02-15T11:09:01;49.80;;;25.20;;
2618;SDS011;1319;52.346;13.096;2023-02-15T11:11:34;57.57;;;28.47;;
2618;SDS011;1319;52.346;13.096;2023-02-15T11:14:02;61.77;;;29.80;;
2618;SDS011;1319;52.346;13.096;2023-02-15T11:16:32;56.93;;;28.07;;
2618;SDS011;1319;52.346;13.096;2023-02-15T11:18:59;51.27;;;27.60;;
2618;SDS011;1319;52.346;13.096;2023-02-15T11:21:27;47.90;;;25.67;;
2618;SDS011;1319;52.346;13.096;2023-02-15T11:23:53;47.43;;;26.57;;
2618;SDS011;1319;52.346;13.096;2023-02-15T11:28:46;44.70;;;26.43;;
2618;SDS011;1319;52.346;13.096;2023-02-15T11:31:20;44.00;;;25.83;;
2618;SDS011;1319;52.346;13.096;2023-02-15T11:33:47;42.50;;;25.67;;
2618;SDS011;1319;52.346;13.096;2023-02-15T11:36:27;41.35;;;25.15;;
2618;SDS011;1319;52.346;13.096;2023-02-15T11:38:59;40.72;;;25.20;;
2618;SDS011;1319;52.346;13.096;2023-02-15T11:41:28;37.35;;;23.85;;
2618;SDS011;1319;52.346;13.096;2023-02-15T11:46:26;35.83;;;23.98;;
2618;SDS011;1319;52.346;13.096;2023-02-15T11:48:51;40.28;;;24.65;;
2618;SDS011;1319;52.346;13.096;2023-02-15T11:51:17;40.25;;;24.17;;
2618;SDS011;1319;52.346;13.096;2023-02-15T11:53:44;36.70;;;24.33;;
2618;SDS011;1319;52.346;13.096;2023-02-15T11:56:14;38.20;;;23.05;;
2618;SDS011;1319;52.346;13.096;2023-02-15T11:58:40;32.35;;;22.13;;
2618;SDS011;1319;52.346;13.096;2023-02-15T12:01:24;31.83;;;22.40;;
2618;SDS011;1319;52.346;13.096;2023-02-15T12:03:53;31.85;;;21.83;;
2618;SDS011;1319;52.346;13.096;2023-02-15T12:08:57;33.47;;;22.90;;
2618;SDS011;1319;52.346;13.096;2023-02-15T12:11:32;28.63;;;21.20;;
2618;SDS011;1319;52.346;13.096;2023-02-15T12:13:59;30.35;;;21.10;;
2618;SDS011;1319;52.346;13.096;2023-02-15T12:16:25;28.58;;;19.60;;
2618;SDS011;1319;52.346;13.096;2023-02-15T12:18:52;26.83;;;20.15;;
2618;SDS011;1319;52.346;13.096;2023-02-15T12:21:31;25.45;;;18.58;;
2618;SDS011;1319;52.346;13.096;2023-02-15T12:24:00;24.50;;;18.33;;
2618;SDS011;1319;52.346;13.096;2023-02-15T12:26:30;23.17;;;17.45;;
2618;SDS011;1319;52.346;13.096;2023-02-15T12:28:57;25.00;;;16.83;;
2618;SDS011;1319;52.346;13.096;2023-02-15T12:31:26;23.13;;;16.73;;
2618;SDS011;1319;52.346;13.096;2023-02-15T12:33:55;23.30;;;16.73;;
2618;SDS011;1319;52.346;13.096;2023-02-15T12:36:23;19.77;;;14.82;;
2618;SDS011;1319;52.346;13.096;2023-02-15T12:41:30;18.38;;;14.43;;
2618;SDS011;1319;52.346;13.096;2023-02-15T12:44:06;15.20;;;13.13;;
2618;SDS011;1319;52.346;13.096;2023-02-15T12:46:31;14.35;;;11.05;;
2618;SDS011;1319;52.346;13.096;2023-02-15T12:49:04;13.65;;;10.40;;
2618;SDS011;1319;52.346;13.096;2023-02-15T12:51:31;11.60;;;10.43;;
2618;SDS011;1319;52.346;13.096;2023-02-15T12:54:15;11.90;;;10.18;;
2618;SDS011;1319;52.346;13.096;2023-02-15T12:56:41;10.20;;;9.20;;
2618;SDS011;1319;52.346;13.096;2023-02-15T12:59:06;11.93;;;9.35;;
2618;SDS011;1319;52.346;13.096;2023-02-15T13:01:31;11.88;;;9.95;;
2618;SDS011;1319;52.346;13.096;2023-02-15T13:04:01;11.73;;;9.95;;
2618;SDS011;1319;52.346;13.096;2023-02-15T13:06:28;11.85;;;9.63;;
2618;SDS011;1319;52.346;13.096;2023-02-15T13:08:56;10.35;;;9.25;;
2618;SDS011;1319;52.346;13.096;2023-02-15T13:11:25;10.25;;;9.15;;
2618;SDS011;1319;52.346;13.096;2023-02-15T13:13:58;10.77;;;9.48;;
2618;SDS011;1319;52.346;13.096;2023-02-15T13:16:39;12.13;;;9.18;;
2618;SDS011;1319;52.346;13.096;2023-02-15T13:19:18;10.93;;;9.07;;
2618;SDS011;1319;52.346;13.096;2023-02-15T13:21:45;11.35;;;9.20;;
2618;SDS011;1319;52.346;13.096;2023-02-15T13:24:24;10.43;;;9.38;;
2618;SDS011;1319;52.346;13.096;2023-02-15T13:26:50;11.40;;;9.35;;
2618;SDS011;1319;52.346;13.096;2023-02-15T13:29:18;11.50;;;9.32;;
2618;SDS011;1319;52.346;13.096;2023-02-15T13:31:46;11.52;;;9.70;;
2618;SDS011;1319;52.346;13.096;2023-02-15T13:34:14;12.23;;;9.65;;
2618;SDS011;1319;52.346;13.096;2023-02-15T13:39:13;11.15;;;8.98;;
2618;SDS011;1319;52.346;13.096;2023-02-15T13:46:50;14.23;;;10.18;;
2618;SDS011;1319;52.346;13.096;2023-02-15T13:52:21;13.65;;;10.68;;
2618;SDS011;1319;52.346;13.096;2023-02-15T14:05:24;11.85;;;10.13;;
2618;SDS011;1319;52.346;13.096;2023-02-15T14:07:56;13.02;;;10.23;;
2618;SDS011;1319;52.346;13.096;2023-02-15T14:15:40;11.95;;;10.70;;
2618;SDS011;1319;52.346;13.096;2023-02-15T14:20:56;11.85;;;10.38;;
2618;SDS011;1319;52.346;13.096;2023-02-15T14:31:34;16.25;;;11.00;;
2618;SDS011;1319;52.346;13.096;2023-02-15T14:34:00;14.15;;;11.27;;
2618;SDS011;1319;52.346;13.096;2023-02-15T14:36:25;13.30;;;11.30;;
2618;SDS011;1319;52.346;13.096;2023-02-15T14:41:58;13.93;;;10.82;;
2618;SDS011;1319;52.346;13.096;2023-02-15T14:44:39;12.75;;;10.93;;
2618;SDS011;1319;52.346;13.096;2023-02-15T14:47:14;13.48;;;10.88;;
2618;SDS011;1319;52.346;13.096;2023-02-15T14:49:41;14.52;;;10.35;;
2618;SDS011;1319;52.346;13.096;2023-02-15T14:52:10;13.27;;;10.95;;
2618;SDS011;1319;52.346;13.096;2023-02-15T15:02:29;14.15;;;10.48;;
2618;SDS011;1319;52.346;13.096;2023-02-15T15:07:50;14.25;;;10.43;;
2618;SDS011;1319;52.346;13.096;2023-02-15T15:18:09;15.35;;;11.07;;
2618;SDS011;1319;52.346;13.096;2023-02-15T15:25:43;15.40;;;10.75;;
2618;SDS011;1319;52.346;13.096;2023-02-15T15:28:33;16.33;;;10.03;;
2618;SDS011;1319;52.346;13.096;2023-02-15T15:30:55;14.47;;;10.00;;
2618;SDS011;1319;52.346;13.096;2023-02-15T15:38:49;14.17;;;10.60;;
2618;SDS011;1319;52.346;13.096;2023-02-15T15:47:01;15.10;;;10.67;;
2618;SDS011;1319;52.346;13.096;2023-02-15T15:49:28;15.43;;;11.17;;
2618;SDS011;1319;52.346;13.096;2023-02-15T15:51:55;19.70;;;11.70;;
2618;SDS011;1319;52.346;13.096;2023-02-15T15:54:21;11.50;;;9.23;;
2618;SDS011;1319;52.346;13.096;2023-02-15T15:56:48;16.87;;;9.53;;
2618;SDS011;1319;52.346;13.096;2023-02-15T15:59:24;13.47;;;9.30;;
2618;SDS011;1319;52.346;13.096;2023-02-15T16:01:50;13.33;;;9.10;;
2618;SDS011;1319;52.346;13.096;2023-02-15T16:04:23;12.73;;;8.13;;
2618;SDS011;1319;52.346;13.096;2023-02-15T16:06:50;13.53;;;9.03;;
2618;SDS011;1319;52.346;13.096;2023-02-15T16:09:20;13.53;;;8.97;;
2618;SDS011;1319;52.346;13.096;2023-02-15T16:11:46;11.70;;;8.23;;
2618;SDS011;1319;52.346;13.096;2023-02-15T16:14:16;14.30;;;8.87;;
2618;SDS011;1319;52.346;13.096;2023-02-15T16:16:46;12.97;;;9.00;;
2618;SDS011;1319;52.346;13.096;2023-02-15T16:19:23;12.83;;;8.70;;
2618;SDS011;1319;52.346;13.096;2023-02-15T16:21:49;14.83;;;8.87;;
2618;SDS011;1319;52.346;13.096;2023-02-15T16:29:28;10.97;;;8.30;;
2618;SDS011;1319;52.346;13.096;2023-02-15T16:32:04;11.97;;;8.27;;
2618;SDS011;1319;52.346;13.096;2023-02-15T16:34:30;14.00;;;8.90;;
2618;SDS011;1319;52.346;13.096;2023-02-15T16:39:42;12.93;;;8.73;;
2618;SDS011;1319;52.346;13.096;2023-02-15T16:42:07;12.83;;;8.30;;
2618;SDS011;1319;52.346;13.096;2023-02-15T16:44:33;12.33;;;9.17;;
2618;SDS011;1319;52.346;13.096;2023-02-15T16:46:58;13.27;;;8.70;;
2618;SDS011;1319;52.346;13.096;2023-02-15T16:49:25;14.13;;;8.63;;
2618;SDS011;1319;52.346;13.096;2023-02-15T16:52:03;14.47;;;8.87;;
2618;SDS011;1319;52.346;13.096;2023-02-15T16:54:31;15.50;;;8.90;;
2618;SDS011;1319;52.346;13.096;2023-02-15T16:56:57;14.23;;;8.90;;
2618;SDS011;1319;52.346;13.096;2023-02-15T16:59:35;13.33;;;8.33;;
2618;SDS011;1319;52.346;13.096;2023-02-15T17:02:05;15.70;;;8.33;;
2618;SDS011;1319;52.346;13.096;2023-02-15T17:04:31;12.40;;;8.37;;
2618;SDS011;1319;52.346;13.096;2023-02-15T17:07:04;14.97;;;8.83;;
2618;SDS011;1319;52.346;13.096;2023-02-15T17:09:31;14.47;;;8.47;;
2618;SDS011;1319;52.346;13.096;2023-02-15T17:11:57;14.87;;;8.73;;
2618;SDS011;1319;52.346;13.096;2023-02-15T17:14:31;13.83;;;9.00;;
2618;SDS011;1319;52.346;13.096;2023-02-15T17:17:12;17.30;;;9.27;;
2618;SDS011;1319;52.346;13.096;2023-02-15T17:22:16;14.23;;;9.00;;
2618;SDS011;1319;52.346;13.096;2023-02-15T17:24:43;14.67;;;8.13;;
2618;SDS011;1319;52.346;13.096;2023-02-15T17:27:19;15.27;;;9.17;;
2618;SDS011;1319;52.346;13.096;2023-02-15T17:29:55;16.23;;;9.90;;